createdAt,value
2023-05-05T00:00:12.112Z,0
2023-05-05T00:01:26.607Z,0
2023-05-05T00:03:55.539Z,0
2023-05-05T00:05:10.000Z,0
2023-05-05T00:06:24.479Z,0
2023-05-05T00:07:38.945Z,0
2023-05-05T00:08:53.415Z,0
2023-05-05T00:10:07.872Z,0
2023-05-05T00:11:22.336Z,0
2023-05-05T00:12:35.925Z,0
2023-05-05T00:13:50.402Z,0
2023-05-05T00:15:04.867Z,0
2023-05-05T00:16:19.351Z,0
2023-05-05T00:18:48.280Z,0
2023-05-05T00:20:02.736Z,0
2023-05-05T00:21:17.205Z,0
2023-05-05T00:22:31.673Z,0
2023-05-05T00:23:46.136Z,0
2023-05-05T00:25:00.600Z,0
2023-05-05T00:26:15.083Z,0
2023-05-05T00:27:29.555Z,0
2023-05-05T00:28:44.032Z,0
2023-05-05T00:29:58.486Z,0
2023-05-05T00:31:12.103Z,0
2023-05-05T00:32:25.682Z,0
2023-05-05T00:33:40.156Z,0
2023-05-05T00:34:54.632Z,0
2023-05-05T00:36:09.099Z,0
2023-05-05T00:37:23.555Z,0
2023-05-05T00:38:38.015Z,0
2023-05-05T00:39:52.480Z,0
2023-05-05T00:41:06.971Z,0
2023-05-05T00:43:35.891Z,0
2023-05-05T00:44:50.371Z,0
2023-05-05T00:46:04.840Z,0
2023-05-05T00:47:19.302Z,0
2023-05-05T00:48:33.771Z,0
2023-05-05T00:49:48.238Z,0
2023-05-05T00:51:01.826Z,0
2023-05-05T00:53:30.753Z,0
2023-05-05T00:54:45.228Z,0
2023-05-05T00:55:58.857Z,0
2023-05-05T00:58:27.785Z,0
2023-05-05T00:59:42.249Z,0
2023-05-05T01:00:55.848Z,0
2023-05-05T01:03:24.779Z,0
2023-05-05T01:04:39.245Z,0
2023-05-05T01:05:53.724Z,0
2023-05-05T01:08:22.649Z,0
2023-05-05T01:09:37.127Z,0
2023-05-05T01:10:51.579Z,0
2023-05-05T01:12:06.043Z,0
2023-05-05T01:13:20.518Z,0
2023-05-05T01:14:34.992Z,0
2023-05-05T01:15:48.606Z,0
2023-05-05T01:17:02.190Z,0
2023-05-05T01:18:16.655Z,0
2023-05-05T01:19:31.120Z,0
2023-05-05T01:20:45.601Z,0
2023-05-05T01:22:00.073Z,0
2023-05-05T01:23:14.523Z,0
2023-05-05T01:24:28.997Z,0
2023-05-05T01:25:43.465Z,0
2023-05-05T01:28:12.393Z,0
2023-05-05T01:29:26.879Z,0
2023-05-05T01:30:41.339Z,0
2023-05-05T01:31:55.813Z,0
2023-05-05T01:33:10.267Z,0
2023-05-05T01:34:24.732Z,0
2023-05-05T01:35:39.319Z,0
2023-05-05T01:36:53.802Z,0
2023-05-05T01:38:08.269Z,0
2023-05-05T01:39:22.730Z,0
2023-05-05T01:40:37.203Z,0
2023-05-05T01:41:51.684Z,0
2023-05-05T01:43:06.131Z,0
2023-05-05T01:44:20.610Z,0
2023-05-05T01:45:34.222Z,0
2023-05-05T01:46:47.815Z,0
2023-05-05T01:48:02.279Z,0
2023-05-05T01:49:16.742Z,0
2023-05-05T01:50:31.222Z,0
2023-05-05T01:51:45.692Z,0
2023-05-05T01:53:00.147Z,0
2023-05-05T01:54:14.604Z,0
2023-05-05T01:55:29.093Z,0
2023-05-05T01:56:43.550Z,0
2023-05-05T01:59:12.482Z,0
2023-05-05T02:00:26.949Z,0
2023-05-05T02:02:55.898Z,0
2023-05-05T02:04:09.510Z,0
2023-05-05T02:05:23.096Z,0
2023-05-05T02:06:37.562Z,0
2023-05-05T02:07:52.036Z,0
2023-05-05T02:09:06.495Z,0
2023-05-05T02:10:20.981Z,0
2023-05-05T02:12:49.904Z,0
2023-05-05T02:14:04.368Z,0
2023-05-05T02:15:18.841Z,0
2023-05-05T02:16:33.319Z,0
2023-05-05T02:17:47.770Z,0
2023-05-05T02:19:02.245Z,0
2023-05-05T02:20:16.710Z,0
2023-05-05T02:21:30.303Z,0
2023-05-05T02:22:44.773Z,0
2023-05-05T02:23:59.240Z,0
2023-05-05T02:25:13.702Z,0
2023-05-05T02:26:28.188Z,0
2023-05-05T02:27:42.641Z,0
2023-05-05T02:28:57.104Z,0
2023-05-05T02:30:11.586Z,0
2023-05-05T02:32:39.670Z,0
2023-05-05T02:33:53.247Z,0
2023-05-05T02:35:07.728Z,0
2023-05-05T02:36:22.181Z,0
2023-05-05T02:37:36.637Z,0
2023-05-05T02:38:51.120Z,0
2023-05-05T02:41:19.183Z,0
2023-05-05T02:42:32.784Z,0
2023-05-05T02:43:47.251Z,0
2023-05-05T02:45:01.724Z,0
2023-05-05T02:46:16.185Z,0
2023-05-05T02:47:30.657Z,0
2023-05-05T02:48:45.120Z,0
2023-05-05T02:49:59.581Z,0
2023-05-05T02:51:14.074Z,0
2023-05-05T02:52:28.540Z,0
2023-05-05T02:53:42.999Z,0
2023-05-05T02:54:57.483Z,0
2023-05-05T02:56:11.944Z,0
2023-05-05T02:57:26.408Z,0
2023-05-05T02:58:40.012Z,0
2023-05-05T02:59:53.600Z,0
2023-05-05T03:01:08.073Z,0
2023-05-05T03:02:22.536Z,0
2023-05-05T03:03:37.007Z,0
2023-05-05T03:04:51.469Z,0
2023-05-05T03:06:05.936Z,0
2023-05-05T03:07:20.416Z,0
2023-05-05T03:08:34.894Z,0
2023-05-05T03:11:03.721Z,2
2023-05-05T03:12:18.140Z,1
2023-05-05T03:13:32.561Z,1
2023-05-05T03:14:46.965Z,2
2023-05-05T03:16:01.385Z,3
2023-05-05T03:17:15.808Z,2
2023-05-05T03:18:29.334Z,3
2023-05-05T03:19:43.747Z,3
2023-05-05T03:20:58.156Z,4
2023-05-05T03:22:12.571Z,5
2023-05-05T03:23:26.988Z,5
2023-05-05T03:24:41.396Z,6
2023-05-05T03:25:54.967Z,8
2023-05-05T03:27:09.363Z,10
2023-05-05T03:28:22.891Z,14
2023-05-05T03:29:37.334Z,15
2023-05-05T03:30:51.730Z,18
2023-05-05T03:32:06.153Z,19
2023-05-05T03:33:20.561Z,20
2023-05-05T03:34:34.976Z,23
2023-05-05T03:35:49.390Z,28
2023-05-05T03:37:03.805Z,30
2023-05-05T03:38:18.206Z,34
2023-05-05T03:40:47.036Z,42
2023-05-05T03:42:01.467Z,44
2023-05-05T03:43:15.869Z,49
2023-05-05T03:44:30.298Z,52
2023-05-05T03:45:44.708Z,59
2023-05-05T03:46:58.237Z,65
2023-05-05T03:48:12.641Z,68
2023-05-05T03:49:27.067Z,74
2023-05-05T03:50:41.482Z,82
2023-05-05T03:51:55.908Z,92
2023-05-05T03:53:10.314Z,98
2023-05-05T03:55:39.136Z,109
2023-05-05T03:56:53.557Z,113
2023-05-05T03:58:07.967Z,119
2023-05-05T04:00:36.800Z,134
2023-05-05T04:01:50.354Z,140
2023-05-05T04:03:04.759Z,146
2023-05-05T04:04:18.306Z,154
2023-05-05T04:05:32.713Z,158
2023-05-05T04:06:47.132Z,170
2023-05-05T04:08:01.541Z,178
2023-05-05T04:09:15.960Z,182
2023-05-05T04:10:30.375Z,194
2023-05-05T04:11:44.786Z,196
2023-05-05T04:12:59.196Z,210
2023-05-05T04:14:13.613Z,220
2023-05-05T04:15:28.030Z,224
2023-05-05T04:16:42.441Z,232
2023-05-05T04:17:55.992Z,237
2023-05-05T04:19:09.543Z,244
2023-05-05T04:20:23.940Z,255
2023-05-05T04:21:38.353Z,264
2023-05-05T04:22:52.774Z,271
2023-05-05T04:24:07.194Z,283
2023-05-05T04:25:21.608Z,294
2023-05-05T04:26:36.014Z,305
2023-05-05T04:27:50.435Z,313
2023-05-05T04:29:04.860Z,326
2023-05-05T04:30:19.251Z,336
2023-05-05T04:31:33.675Z,347
2023-05-05T04:34:02.520Z,367
2023-05-05T04:35:16.918Z,376
2023-05-05T04:36:31.328Z,291
2023-05-05T04:37:45.755Z,178
2023-05-05T04:38:59.280Z,690
2023-05-05T04:40:13.694Z,304
2023-05-05T04:41:28.113Z,650
2023-05-05T04:42:42.540Z,346
2023-05-05T04:43:56.934Z,474
2023-05-05T04:45:11.356Z,591
2023-05-05T04:46:25.768Z,651
2023-05-05T04:47:40.176Z,193
2023-05-05T04:48:54.591Z,440
2023-05-05T04:50:09.009Z,590
2023-05-05T04:51:23.420Z,648
2023-05-05T04:52:37.848Z,671
2023-05-05T04:53:52.251Z,644
2023-05-05T04:55:06.673Z,662
2023-05-05T04:56:21.071Z,700
2023-05-05T04:57:34.614Z,746
2023-05-05T05:00:03.439Z,703
2023-05-05T05:01:17.856Z,744
2023-05-05T05:02:32.271Z,793
2023-05-05T05:05:01.095Z,982
2023-05-05T05:06:15.512Z,210
2023-05-05T05:07:29.921Z,709
2023-05-05T05:08:44.347Z,703
2023-05-05T05:09:58.753Z,915
2023-05-05T05:11:13.182Z,772
2023-05-05T05:12:27.585Z,785
2023-05-05T05:13:41.996Z,917
2023-05-05T05:14:56.410Z,938
2023-05-05T05:16:10.835Z,1001
2023-05-05T05:17:24.363Z,847
2023-05-05T05:18:38.776Z,959
2023-05-05T05:19:53.191Z,890
2023-05-05T05:21:07.607Z,772
2023-05-05T05:22:22.031Z,934
2023-05-05T05:23:36.442Z,951
2023-05-05T05:24:50.845Z,986
2023-05-05T05:26:05.264Z,943
2023-05-05T05:27:19.687Z,996
2023-05-05T05:29:48.507Z,1016
2023-05-05T05:31:02.916Z,997
2023-05-05T05:32:17.328Z,1011
2023-05-05T05:34:45.286Z,1037
2023-05-05T05:35:59.684Z,1052
2023-05-05T05:37:14.111Z,1056
2023-05-05T05:38:28.525Z,1066
2023-05-05T05:39:42.932Z,1067
2023-05-05T05:40:57.343Z,1094
2023-05-05T05:42:11.763Z,1076
2023-05-05T05:43:26.185Z,1082
2023-05-05T05:44:40.581Z,1114
2023-05-05T05:45:55.013Z,1124
2023-05-05T05:47:09.417Z,1107
2023-05-05T05:48:23.841Z,1120
2023-05-05T05:49:38.243Z,1117
2023-05-05T05:50:51.775Z,1120
2023-05-05T05:52:06.197Z,1232
2023-05-05T05:54:35.027Z,1116
2023-05-05T05:55:49.435Z,1372
2023-05-05T05:57:03.849Z,1193
2023-05-05T05:58:18.262Z,778
2023-05-05T05:59:32.670Z,936
2023-05-05T06:00:47.098Z,1098
2023-05-05T06:02:01.508Z,1192
2023-05-05T06:03:15.916Z,1226
2023-05-05T06:04:30.338Z,1248
2023-05-05T06:05:44.737Z,1257
2023-05-05T06:06:58.279Z,1284
2023-05-05T06:08:12.686Z,1291
2023-05-05T06:09:27.105Z,1286
2023-05-05T06:10:41.513Z,1320
2023-05-05T06:11:55.939Z,1349
2023-05-05T06:13:10.339Z,1364
2023-05-05T06:14:24.749Z,1385
2023-05-05T06:15:39.176Z,1422
2023-05-05T06:16:52.705Z,1462
2023-05-05T06:18:07.123Z,1535
2023-05-05T06:19:21.541Z,1402
2023-05-05T06:20:35.941Z,1563
2023-05-05T06:21:50.372Z,1594
2023-05-05T06:23:04.772Z,1602
2023-05-05T06:24:19.190Z,1720
2023-05-05T06:25:33.601Z,1661
2023-05-05T06:26:48.027Z,1635
2023-05-05T06:28:02.422Z,1507
2023-05-05T06:29:16.840Z,1575
2023-05-05T06:30:31.259Z,1574
2023-05-05T06:31:45.669Z,1444
2023-05-05T06:34:14.499Z,1497
2023-05-05T06:35:28.910Z,1766
2023-05-05T06:36:43.322Z,1850
2023-05-05T06:37:56.870Z,1856
2023-05-05T06:39:11.266Z,1952
2023-05-05T06:40:25.679Z,2012
2023-05-05T06:41:40.099Z,1906
2023-05-05T06:42:54.516Z,1974
2023-05-05T06:44:08.919Z,2033
2023-05-05T06:45:23.336Z,2074
2023-05-05T06:46:37.746Z,2073
2023-05-05T06:47:52.180Z,2097
2023-05-05T06:50:21.000Z,2124
2023-05-05T06:51:35.414Z,2279
2023-05-05T06:52:49.828Z,2075
2023-05-05T06:55:18.647Z,2130
2023-05-05T06:56:32.205Z,2129
2023-05-05T06:57:46.614Z,2164
2023-05-05T06:59:01.033Z,2175
2023-05-05T07:00:15.451Z,2215
2023-05-05T07:01:28.973Z,2214
2023-05-05T07:03:57.812Z,2064
2023-05-05T07:05:12.227Z,2156
2023-05-05T07:06:26.650Z,2182
2023-05-05T07:08:55.459Z,2174
2023-05-05T07:10:09.885Z,2192
2023-05-05T07:11:24.292Z,2184
2023-05-05T07:12:38.709Z,2185
2023-05-05T07:13:53.111Z,2184
2023-05-05T07:15:07.536Z,2166
2023-05-05T07:16:21.087Z,2173
2023-05-05T07:18:49.911Z,2165
2023-05-05T07:20:04.454Z,2196
2023-05-05T07:21:18.863Z,2170
2023-05-05T07:23:47.693Z,2151
2023-05-05T07:25:02.104Z,2108
2023-05-05T07:26:16.524Z,2132
2023-05-05T07:27:30.942Z,2132
2023-05-05T07:28:45.343Z,2181
2023-05-05T07:29:59.744Z,2197
2023-05-05T07:31:14.162Z,2909
2023-05-05T07:33:42.989Z,2301
2023-05-05T07:34:57.401Z,2348
2023-05-05T07:36:11.806Z,1628
2023-05-05T07:37:26.218Z,2472
2023-05-05T07:38:39.768Z,2697
2023-05-05T07:39:54.189Z,1630
2023-05-05T07:41:08.603Z,1292
2023-05-05T07:43:37.428Z,1998
2023-05-05T07:44:51.828Z,2245
2023-05-05T07:46:06.241Z,2581
2023-05-05T07:48:35.073Z,1471
2023-05-05T07:49:49.510Z,2203
2023-05-05T07:51:03.897Z,834
2023-05-05T07:53:32.724Z,2675
2023-05-05T07:54:47.158Z,1846
2023-05-05T07:56:01.563Z,1292
2023-05-05T07:58:30.375Z,925
2023-05-05T07:59:44.786Z,1096
2023-05-05T08:00:59.222Z,801
2023-05-05T08:02:12.740Z,1582
2023-05-05T08:03:27.151Z,1131
2023-05-05T08:04:41.563Z,1052
2023-05-05T08:05:55.995Z,761
2023-05-05T08:07:10.396Z,412
2023-05-05T08:08:24.819Z,1391
2023-05-05T08:09:39.235Z,2203
2023-05-05T08:10:53.643Z,1242
2023-05-05T08:13:22.466Z,2057
2023-05-05T08:14:36.892Z,1506
2023-05-05T08:15:51.288Z,1807
2023-05-05T08:18:20.132Z,1697
2023-05-05T08:19:34.527Z,1684
2023-05-05T08:20:48.060Z,1649
2023-05-05T08:22:02.489Z,1720
2023-05-05T08:23:16.910Z,1638
2023-05-05T08:24:31.308Z,1651
2023-05-05T08:25:45.726Z,1677
2023-05-05T08:27:00.138Z,1530
2023-05-05T08:28:14.552Z,1636
2023-05-05T08:29:28.960Z,1758
2023-05-05T08:30:43.408Z,1664
2023-05-05T08:31:57.803Z,1648
2023-05-05T08:33:12.208Z,1570
2023-05-05T08:34:26.635Z,1735
2023-05-05T08:35:41.051Z,1457
2023-05-05T08:36:54.561Z,1583
2023-05-05T08:38:08.997Z,1608
2023-05-05T08:39:23.386Z,1734
2023-05-05T08:40:36.957Z,1512
2023-05-05T08:41:50.497Z,1568
2023-05-05T08:43:04.915Z,1604
2023-05-05T08:44:19.314Z,1597
2023-05-05T08:45:33.740Z,1632
2023-05-05T08:48:02.550Z,1671
2023-05-05T08:49:16.984Z,1517
2023-05-05T08:50:31.373Z,1751
2023-05-05T08:51:45.797Z,1506
2023-05-05T08:53:00.201Z,1706
2023-05-05T08:54:14.617Z,1686
2023-05-05T08:55:29.029Z,1925
2023-05-05T08:56:43.450Z,1963
2023-05-05T08:57:56.992Z,2354
2023-05-05T08:59:11.399Z,1124
2023-05-05T09:00:25.816Z,1790
2023-05-05T09:02:54.640Z,2023
2023-05-05T09:04:08.200Z,2005
2023-05-05T09:05:21.735Z,1060
2023-05-05T09:06:36.152Z,1933
2023-05-05T09:07:50.573Z,1426
2023-05-05T09:09:04.962Z,2054
2023-05-05T09:10:19.408Z,1129
2023-05-05T09:11:33.801Z,1522
2023-05-05T09:12:48.228Z,1232
2023-05-05T09:14:02.642Z,1711
2023-05-05T09:15:17.043Z,1794
2023-05-05T09:16:31.460Z,1762
2023-05-05T09:17:45.001Z,1770
2023-05-05T09:18:59.419Z,1711
2023-05-05T09:20:12.960Z,1755
2023-05-05T09:22:41.784Z,1793
2023-05-05T09:23:56.196Z,1912
2023-05-05T09:25:10.638Z,1881
2023-05-05T09:26:25.032Z,1853
2023-05-05T09:27:39.435Z,2475
2023-05-05T09:28:53.858Z,2039
2023-05-05T09:30:08.299Z,1339
2023-05-05T09:31:22.678Z,875
2023-05-05T09:32:37.115Z,1146
2023-05-05T09:33:51.513Z,2218
2023-05-05T09:35:05.927Z,1336
2023-05-05T09:36:20.352Z,1578
2023-05-05T09:37:34.745Z,1880
2023-05-05T09:38:49.186Z,1980
2023-05-05T09:40:03.581Z,2021
2023-05-05T09:42:31.521Z,2100
2023-05-05T09:43:45.956Z,2078
2023-05-05T09:45:00.370Z,2104
2023-05-05T09:46:14.800Z,2140
2023-05-05T09:47:29.189Z,2142
2023-05-05T09:48:43.597Z,2184
2023-05-05T09:49:58.019Z,2173
2023-05-05T09:51:12.415Z,2301
2023-05-05T09:52:26.839Z,2326
2023-05-05T09:53:41.251Z,1728
2023-05-05T09:54:54.798Z,1877
2023-05-05T09:57:22.755Z,1992
2023-05-05T09:58:37.172Z,1780
2023-05-05T09:59:51.605Z,1811
2023-05-05T10:02:20.404Z,1117
2023-05-05T10:04:49.243Z,2103
2023-05-05T10:06:03.645Z,1710
2023-05-05T10:07:18.060Z,1906
2023-05-05T10:08:32.494Z,2022
2023-05-05T10:12:15.717Z,2075
2023-05-05T10:13:29.246Z,2044
2023-05-05T10:14:43.683Z,1999
2023-05-05T10:15:57.252Z,2154
2023-05-05T10:17:11.630Z,2066
2023-05-05T10:18:26.068Z,2297
2023-05-05T10:19:39.604Z,2352
2023-05-05T10:20:54.020Z,1725
2023-05-05T10:22:08.404Z,2404
2023-05-05T10:23:22.835Z,1171
2023-05-05T10:24:37.270Z,1931
2023-05-05T10:27:05.215Z,1903
2023-05-05T10:28:19.597Z,1550
2023-05-05T10:29:34.010Z,2220
2023-05-05T10:32:02.865Z,2032
2023-05-05T10:33:17.261Z,2348
2023-05-05T10:34:31.689Z,2294
2023-05-05T10:37:00.495Z,1967
2023-05-05T10:38:14.904Z,1999
2023-05-05T10:39:29.331Z,2051
2023-05-05T10:40:42.905Z,2266
2023-05-05T10:41:56.445Z,997
2023-05-05T10:43:10.858Z,2092
2023-05-05T10:44:25.265Z,2088
2023-05-05T10:45:39.682Z,2229
2023-05-05T10:46:54.083Z,2389
2023-05-05T10:48:08.501Z,1636
2023-05-05T10:49:22.919Z,2229
2023-05-05T10:50:37.342Z,2222
2023-05-05T10:51:51.752Z,2276
2023-05-05T10:53:06.180Z,2299
2023-05-05T10:55:35.019Z,2351
2023-05-05T10:56:49.403Z,2478
2023-05-05T10:58:03.810Z,2265
2023-05-05T11:00:32.661Z,2850
2023-05-05T11:01:46.184Z,2692
2023-05-05T11:03:00.620Z,2475
2023-05-05T11:04:15.006Z,3132
2023-05-05T11:05:29.415Z,2241
2023-05-05T11:06:43.856Z,3139
2023-05-05T11:07:58.268Z,2219
2023-05-05T11:09:12.660Z,2727
2023-05-05T11:10:27.093Z,3198
2023-05-05T11:11:41.480Z,2793
2023-05-05T11:12:55.922Z,2286
2023-05-05T11:14:10.335Z,2318
2023-05-05T11:15:24.751Z,1628
2023-05-05T11:17:53.580Z,2359
2023-05-05T11:20:22.504Z,2171
2023-05-05T11:21:36.912Z,2368
2023-05-05T11:22:51.333Z,2022
2023-05-05T11:24:05.747Z,1795
2023-05-05T11:25:20.150Z,1983
2023-05-05T11:26:34.594Z,1882
2023-05-05T11:27:48.978Z,2076
2023-05-05T11:30:17.818Z,1640
2023-05-05T11:31:32.228Z,1869
2023-05-05T11:32:46.638Z,2214
2023-05-05T11:35:15.498Z,2181
2023-05-05T11:37:44.328Z,2284
2023-05-05T11:38:58.703Z,2176
2023-05-05T11:40:13.160Z,2037
2023-05-05T11:41:27.564Z,1976
2023-05-05T11:42:41.972Z,2291
2023-05-05T11:43:56.357Z,2566
2023-05-05T11:45:09.921Z,2192
2023-05-05T11:46:24.350Z,2583
2023-05-05T11:47:38.738Z,2738
2023-05-05T11:48:53.133Z,2511
2023-05-05T11:50:07.564Z,2911
2023-05-05T11:51:21.975Z,2733
2023-05-05T11:52:36.374Z,2862
2023-05-05T11:55:05.231Z,3228
2023-05-05T11:56:19.630Z,3103
2023-05-05T11:57:34.072Z,2850
2023-05-05T11:58:48.479Z,2938
2023-05-05T12:00:02.862Z,2745
2023-05-05T12:01:17.277Z,2709
2023-05-05T12:02:31.704Z,2617
2023-05-05T12:04:59.653Z,2620
2023-05-05T12:07:28.485Z,2622
2023-05-05T12:09:57.344Z,2596
2023-05-05T12:11:11.735Z,2531
2023-05-05T12:12:26.186Z,2525
2023-05-05T12:14:54.978Z,2698
2023-05-05T12:16:09.396Z,2707
2023-05-05T12:17:23.804Z,2711
2023-05-05T12:19:52.631Z,2819
2023-05-05T12:21:06.201Z,2847
2023-05-05T12:22:20.573Z,2793
2023-05-05T12:24:49.432Z,2856
2023-05-05T12:26:03.808Z,2834
2023-05-05T12:27:18.224Z,2959
2023-05-05T12:28:32.656Z,3023
2023-05-05T12:29:47.101Z,3113
2023-05-05T12:32:15.883Z,3308
2023-05-05T12:33:30.328Z,3703
2023-05-05T12:34:44.739Z,2706
2023-05-05T12:35:59.125Z,3811
2023-05-05T12:37:13.541Z,3001
2023-05-05T12:38:27.954Z,3139
2023-05-05T12:39:42.363Z,3418
2023-05-05T12:40:55.943Z,3497
2023-05-05T12:43:24.735Z,3528
2023-05-05T12:44:39.149Z,3576
2023-05-05T12:45:53.566Z,3532
2023-05-05T12:47:07.978Z,3675
2023-05-05T12:48:22.385Z,3072
2023-05-05T12:49:36.790Z,3011
2023-05-05T12:50:51.250Z,3397
2023-05-05T12:52:05.665Z,2969
2023-05-05T12:53:20.045Z,3127
2023-05-05T12:54:34.485Z,3125
2023-05-05T12:55:48.891Z,3260
2023-05-05T12:57:03.306Z,3210
2023-05-05T12:58:17.690Z,3200
2023-05-05T12:59:32.104Z,3688
2023-05-05T13:00:46.520Z,3584
2023-05-05T13:02:00.937Z,3713
2023-05-05T13:03:15.391Z,3452
2023-05-05T13:04:29.788Z,4008
2023-05-05T13:05:43.320Z,4403
2023-05-05T13:08:12.170Z,5156
2023-05-05T13:09:26.551Z,3666
2023-05-05T13:10:41.006Z,3532
2023-05-05T13:11:55.386Z,3443
2023-05-05T13:13:09.927Z,3149
2023-05-05T13:14:24.333Z,3395
2023-05-05T13:15:38.756Z,3975
2023-05-05T13:16:53.191Z,3507
2023-05-05T13:18:07.617Z,4533
2023-05-05T13:19:22.000Z,4976
2023-05-05T13:20:35.541Z,4703
2023-05-05T13:21:49.957Z,4781
2023-05-05T13:23:04.365Z,4971
2023-05-05T13:24:18.781Z,5284
2023-05-05T13:25:33.198Z,5886
2023-05-05T13:26:47.619Z,4196
2023-05-05T13:28:02.029Z,2701
2023-05-05T13:29:16.435Z,5135
2023-05-05T13:30:30.007Z,6107
2023-05-05T13:31:44.387Z,3420
2023-05-05T13:32:58.806Z,5552
2023-05-05T13:34:13.216Z,6086
2023-05-05T13:35:27.638Z,5992
2023-05-05T13:36:42.050Z,5378
2023-05-05T13:37:56.451Z,5222
2023-05-05T13:39:10.882Z,5313
2023-05-05T13:40:25.281Z,4820
2023-05-05T13:41:39.694Z,4441
2023-05-05T13:42:54.115Z,4392
2023-05-05T13:44:08.522Z,4520
2023-05-05T13:45:22.942Z,3643
2023-05-05T13:46:37.348Z,4425
2023-05-05T13:47:51.764Z,3586
2023-05-05T13:49:06.180Z,3864
2023-05-05T13:50:20.607Z,2530
2023-05-05T13:51:35.056Z,3372
2023-05-05T13:52:49.467Z,3163
2023-05-05T13:54:03.956Z,2674
2023-05-05T13:56:32.786Z,2542
2023-05-05T13:57:47.208Z,2525
2023-05-05T13:59:01.649Z,2407
2023-05-05T14:00:16.022Z,2296
2023-05-05T14:01:30.442Z,2273
2023-05-05T14:03:59.272Z,2121
2023-05-05T14:05:13.682Z,2111
2023-05-05T14:06:28.089Z,2167
2023-05-05T14:07:42.501Z,2274
2023-05-05T14:08:56.961Z,2331
2023-05-05T14:10:11.332Z,2314
2023-05-05T14:11:25.789Z,2360
2023-05-05T14:12:40.158Z,2431
2023-05-05T14:13:54.577Z,2543
2023-05-05T14:15:09.021Z,2509
2023-05-05T14:16:22.517Z,2574
2023-05-05T14:18:51.362Z,2568
2023-05-05T14:21:19.330Z,2642
2023-05-05T14:22:33.745Z,2798
2023-05-05T14:23:47.290Z,2794
2023-05-05T14:25:00.824Z,2817
2023-05-05T14:26:15.243Z,2829
2023-05-05T14:28:44.063Z,2906
2023-05-05T14:29:58.484Z,2699
2023-05-05T14:31:12.892Z,2595
2023-05-05T14:32:27.310Z,2606
2023-05-05T14:33:41.716Z,2515
2023-05-05T14:36:10.542Z,2361
2023-05-05T14:37:24.966Z,2150
2023-05-05T14:38:39.370Z,2068
2023-05-05T14:39:53.783Z,1938
2023-05-05T14:41:07.339Z,1868
2023-05-05T14:42:21.771Z,1856
2023-05-05T14:43:35.327Z,1678
2023-05-05T14:44:49.709Z,1669
2023-05-05T14:46:04.126Z,1703
2023-05-05T14:47:18.547Z,1852
2023-05-05T14:48:32.955Z,1927
2023-05-05T14:49:47.361Z,1840
2023-05-05T14:51:01.775Z,1929
2023-05-05T14:52:15.319Z,1803
2023-05-05T14:54:44.180Z,1886
2023-05-05T14:55:58.586Z,1936
2023-05-05T14:57:12.968Z,2013
2023-05-05T14:58:27.375Z,2041
2023-05-05T14:59:41.828Z,2031
2023-05-05T15:00:56.253Z,1983
2023-05-05T15:03:25.027Z,1932
2023-05-05T15:05:53.899Z,1946
2023-05-05T15:07:08.282Z,1838
2023-05-05T15:08:21.814Z,1741
2023-05-05T15:09:36.233Z,1740
2023-05-05T15:10:50.681Z,1618
2023-05-05T15:12:05.060Z,1590
2023-05-05T15:13:19.472Z,1526
2023-05-05T15:14:33.881Z,1453
2023-05-05T15:15:48.332Z,1476
2023-05-05T15:17:02.705Z,1590
2023-05-05T15:18:17.115Z,1475
2023-05-05T15:19:31.586Z,1629
2023-05-05T15:20:45.990Z,1519
2023-05-05T15:22:00.400Z,1637
2023-05-05T15:23:14.775Z,1448
2023-05-05T15:24:28.306Z,1600
2023-05-05T15:26:57.145Z,1558
2023-05-05T15:28:11.545Z,1722
2023-05-05T15:29:25.977Z,1750
2023-05-05T15:30:40.391Z,1661
2023-05-05T15:31:54.791Z,1757
2023-05-05T15:33:09.249Z,1878
2023-05-05T15:34:22.767Z,1677
2023-05-05T15:35:37.175Z,1552
2023-05-05T15:38:06.047Z,1193
2023-05-05T15:39:19.544Z,1388
2023-05-05T15:40:33.996Z,1206
2023-05-05T15:44:17.200Z,1199
2023-05-05T15:45:31.604Z,1183
2023-05-05T15:46:46.026Z,1079
2023-05-05T15:48:00.430Z,1060
2023-05-05T15:49:14.855Z,898
2023-05-05T15:50:29.267Z,842
2023-05-05T15:51:42.832Z,924
2023-05-05T15:52:56.366Z,877
2023-05-05T15:54:10.770Z,823
2023-05-05T15:55:25.193Z,786
2023-05-05T15:57:54.053Z,647
2023-05-05T15:59:08.429Z,626
2023-05-05T16:00:22.838Z,570
2023-05-05T16:01:37.252Z,473
2023-05-05T16:02:51.660Z,375
2023-05-05T16:04:06.086Z,434
2023-05-05T16:05:20.483Z,492
2023-05-05T16:06:34.898Z,553
2023-05-05T16:07:49.359Z,602
2023-05-05T16:09:03.731Z,560
2023-05-05T16:10:17.267Z,574
2023-05-05T16:11:31.690Z,658
2023-05-05T16:12:46.087Z,461
2023-05-05T16:14:00.564Z,591
2023-05-05T16:15:14.963Z,619
2023-05-05T16:16:29.331Z,556
2023-05-05T16:17:43.757Z,717
2023-05-05T16:18:57.310Z,742
2023-05-05T16:20:10.843Z,784
2023-05-05T16:21:25.262Z,767
2023-05-05T16:22:39.680Z,661
2023-05-05T16:23:54.075Z,815
2023-05-05T16:25:08.531Z,968
2023-05-05T16:26:22.919Z,976
2023-05-05T16:27:37.376Z,813
2023-05-05T16:28:51.777Z,559
2023-05-05T16:30:06.151Z,430
2023-05-05T16:31:20.616Z,400
2023-05-05T16:32:34.984Z,400
2023-05-05T16:33:48.532Z,391
2023-05-05T16:35:02.984Z,352
2023-05-05T16:36:16.487Z,341
2023-05-05T16:37:30.904Z,309
2023-05-05T16:38:45.353Z,306
2023-05-05T16:39:59.766Z,291
2023-05-05T16:41:14.127Z,262
2023-05-05T16:42:28.562Z,301
2023-05-05T16:43:42.954Z,373
2023-05-05T16:44:57.421Z,457
2023-05-05T16:46:11.796Z,487
2023-05-05T16:47:26.215Z,520
2023-05-05T16:48:40.614Z,483
2023-05-05T16:49:55.068Z,378
2023-05-05T16:52:23.851Z,325
2023-05-05T16:53:38.275Z,450
2023-05-05T16:54:52.733Z,551
2023-05-05T16:57:20.635Z,539
2023-05-05T16:58:35.058Z,517
2023-05-05T16:59:48.646Z,451
2023-05-05T17:02:16.555Z,414
2023-05-05T17:04:45.435Z,685
2023-05-05T17:05:59.790Z,755
2023-05-05T17:07:14.210Z,706
2023-05-05T17:08:28.660Z,661
2023-05-05T17:09:43.072Z,606
2023-05-05T17:10:57.453Z,516
2023-05-05T17:12:11.914Z,388
2023-05-05T17:13:26.275Z,321
2023-05-05T17:14:40.685Z,309
2023-05-05T17:15:55.103Z,309
2023-05-05T17:17:08.633Z,288
2023-05-05T17:18:23.060Z,279
2023-05-05T17:19:37.476Z,277
2023-05-05T17:20:51.888Z,268
2023-05-05T17:22:06.295Z,272
2023-05-05T17:23:20.702Z,276
2023-05-05T17:24:35.112Z,296
2023-05-05T17:25:49.534Z,325
2023-05-05T17:27:03.946Z,356
2023-05-05T17:28:18.401Z,392
2023-05-05T17:29:31.910Z,371
2023-05-05T17:30:46.331Z,346
2023-05-05T17:32:00.744Z,343
2023-05-05T17:33:14.271Z,368
2023-05-05T17:34:28.687Z,320
2023-05-05T17:35:43.108Z,294
2023-05-05T17:36:57.516Z,280
2023-05-05T17:38:11.942Z,315
2023-05-05T17:39:26.339Z,281
2023-05-05T17:40:40.814Z,195
2023-05-05T17:41:55.230Z,135
2023-05-05T17:43:09.589Z,88
2023-05-05T17:44:24.005Z,70
2023-05-05T17:46:52.886Z,74
2023-05-05T17:48:07.238Z,70
2023-05-05T17:49:20.770Z,60
2023-05-05T17:51:49.601Z,48
2023-05-05T17:53:04.013Z,41
2023-05-05T17:54:18.439Z,34
2023-05-05T17:56:47.254Z,35
2023-05-05T17:58:01.724Z,29
2023-05-05T17:59:15.228Z,28
2023-05-05T18:00:29.691Z,29
2023-05-05T18:01:43.187Z,29
2023-05-05T18:02:57.586Z,25
2023-05-05T18:04:12.007Z,26
2023-05-05T18:05:26.469Z,25
2023-05-05T18:06:40.886Z,25
2023-05-05T18:07:55.247Z,21
2023-05-05T18:10:24.115Z,19
2023-05-05T18:11:38.496Z,18
2023-05-05T18:12:52.905Z,17
2023-05-05T18:14:07.319Z,17
2023-05-05T18:15:21.720Z,13
2023-05-05T18:16:36.152Z,16
2023-05-05T18:17:50.677Z,20
2023-05-05T18:19:05.097Z,24
2023-05-05T18:20:19.506Z,23
2023-05-05T18:21:33.920Z,27
2023-05-05T18:22:48.385Z,35
2023-05-05T18:24:02.805Z,48
2023-05-05T18:26:31.568Z,50
2023-05-05T18:27:45.991Z,42
2023-05-05T18:29:00.399Z,36
2023-05-05T18:30:14.816Z,36
2023-05-05T18:31:29.234Z,33
2023-05-05T18:32:43.650Z,30
2023-05-05T18:33:58.101Z,22
2023-05-05T18:35:12.473Z,17
2023-05-05T18:36:26.035Z,12
2023-05-05T18:37:40.432Z,10
2023-05-05T18:38:54.903Z,7
2023-05-05T18:41:22.794Z,6
2023-05-05T18:42:37.218Z,5
2023-05-05T18:43:51.620Z,5
2023-05-05T18:45:06.035Z,5
2023-05-05T18:46:20.465Z,3
2023-05-05T18:47:34.923Z,4
2023-05-05T18:48:49.276Z,3
2023-05-05T18:50:03.697Z,3
2023-05-05T18:51:18.107Z,2
2023-05-05T18:52:32.575Z,0